sensor_id;sensor_type;location;lat;lon;timestamp;temperature;humidity
47114;DHT22;32867;51.556;6.832;2024-03-08T00:01:49;5.50;1.00
47114;DHT22;32867;51.556;6.832;2024-03-08T00:06:49;5.40;1.00
47114;DHT22;32867;51.556;6.832;2024-03-08T00:11:51;5.50;1.00
47114;DHT22;32867;51.556;6.832;2024-03-08T00:16:52;5.50;1.00
47114;DHT22;32867;51.556;6.832;2024-03-08T00:21:54;5.30;1.00
47114;DHT22;32867;51.556;6.832;2024-03-08T00:26:55;5.20;1.00
47114;DHT22;32867;51.556;6.832;2024-03-08T00:31:56;5.20;1.00
47114;DHT22;32867;51.556;6.832;2024-03-08T00:36:58;5.00;1.00
47114;DHT22;32867;51.556;6.832;2024-03-08T00:41:58;5.10;1.00
47114;DHT22;32867;51.556;6.832;2024-03-08T00:46:59;5.10;1.00
47114;DHT22;32867;51.556;6.832;2024-03-08T00:52:00;4.90;1.00
47114;DHT22;32867;51.556;6.832;2024-03-08T00:57:00;5.10;1.00
47114;DHT22;32867;51.556;6.832;2024-03-08T01:02:03;5.00;1.00
47114;DHT22;32867;51.556;6.832;2024-03-08T01:07:03;4.90;1.00
47114;DHT22;32867;51.556;6.832;2024-03-08T01:12:04;5.00;1.00
47114;DHT22;32867;51.556;6.832;2024-03-08T01:17:07;5.00;1.00
47114;DHT22;32867;51.556;6.832;2024-03-08T01:22:10;5.00;1.00
47114;DHT22;32867;51.556;6.832;2024-03-08T01:27:10;5.00;1.00
47114;DHT22;32867;51.556;6.832;2024-03-08T01:32:12;4.80;1.00
47114;DHT22;32867;51.556;6.832;2024-03-08T01:37:13;4.70;1.00
47114;DHT22;32867;51.556;6.832;2024-03-08T01:42:14;4.80;1.00
47114;DHT22;32867;51.556;6.832;2024-03-08T01:47:18;4.70;1.00
47114;DHT22;32867;51.556;6.832;2024-03-08T01:52:18;4.70;1.00
47114;DHT22;32867;51.556;6.832;2024-03-08T01:57:21;4.40;1.00
47114;DHT22;32867;51.556;6.832;2024-03-08T02:02:22;4.50;1.00
47114;DHT22;32867;51.556;6.832;2024-03-08T02:07:22;4.70;1.00
47114;DHT22;32867;51.556;6.832;2024-03-08T02:12:23;4.60;1.00
47114;DHT22;32867;51.556;6.832;2024-03-08T02:17:24;4.60;1.00
47114;DHT22;32867;51.556;6.832;2024-03-08T02:22:25;4.70;1.00
47114;DHT22;32867;51.556;6.832;2024-03-08T02:27:25;4.70;1.00
47114;DHT22;32867;51.556;6.832;2024-03-08T02:32:26;4.50;1.00
47114;DHT22;32867;51.556;6.832;2024-03-08T02:37:26;4.50;1.00
47114;DHT22;32867;51.556;6.832;2024-03-08T02:42:28;4.40;1.00
47114;DHT22;32867;51.556;6.832;2024-03-08T02:47:29;4.40;1.00
47114;DHT22;32867;51.556;6.832;2024-03-08T02:52:31;4.30;1.00
47114;DHT22;32867;51.556;6.832;2024-03-08T02:57:32;4.40;1.00
47114;DHT22;32867;51.556;6.832;2024-03-08T03:02:33;4.30;1.00
47114;DHT22;32867;51.556;6.832;2024-03-08T03:07:34;4.00;1.00
47114;DHT22;32867;51.556;6.832;2024-03-08T03:12:35;4.20;1.00
47114;DHT22;32867;51.556;6.832;2024-03-08T03:17:35;4.30;1.00
47114;DHT22;32867;51.556;6.832;2024-03-08T03:22:40;4.40;1.00
47114;DHT22;32867;51.556;6.832;2024-03-08T03:27:47;4.30;1.00
47114;DHT22;32867;51.556;6.832;2024-03-08T03:32:48;4.20;1.00
47114;DHT22;32867;51.556;6.832;2024-03-08T03:37:51;4.20;1.00
47114;DHT22;32867;51.556;6.832;2024-03-08T03:43:02;4.20;1.00
47114;DHT22;32867;51.556;6.832;2024-03-08T03:48:04;4.10;1.00
47114;DHT22;32867;51.556;6.832;2024-03-08T03:53:07;4.10;1.00
47114;DHT22;32867;51.556;6.832;2024-03-08T03:58:08;4.00;1.00
47114;DHT22;32867;51.556;6.832;2024-03-08T04:03:12;4.10;1.00
47114;DHT22;32867;51.556;6.832;2024-03-08T04:08:13;4.00;1.00
47114;DHT22;32867;51.556;6.832;2024-03-08T04:13:13;4.00;1.00
47114;DHT22;32867;51.556;6.832;2024-03-08T04:18:16;4.10;1.00
47114;DHT22;32867;51.556;6.832;2024-03-08T04:23:16;4.00;1.00
47114;DHT22;32867;51.556;6.832;2024-03-08T04:28:18;4.10;1.00
47114;DHT22;32867;51.556;6.832;2024-03-08T04:33:18;4.10;1.00
47114;DHT22;32867;51.556;6.832;2024-03-08T04:38:19;4.10;1.00
47114;DHT22;32867;51.556;6.832;2024-03-08T04:43:20;3.90;1.00
47114;DHT22;32867;51.556;6.832;2024-03-08T04:48:21;4.00;1.00
47114;DHT22;32867;51.556;6.832;2024-03-08T04:53:22;4.10;1.00
47114;DHT22;32867;51.556;6.832;2024-03-08T04:58:22;4.00;1.00
47114;DHT22;32867;51.556;6.832;2024-03-08T05:03:23;4.00;1.00
47114;DHT22;32867;51.556;6.832;2024-03-08T05:08:26;4.00;1.00
47114;DHT22;32867;51.556;6.832;2024-03-08T05:13:27;3.80;1.00
47114;DHT22;32867;51.556;6.832;2024-03-08T05:18:27;3.90;1.00
47114;DHT22;32867;51.556;6.832;2024-03-08T05:23:32;3.90;1.00
47114;DHT22;32867;51.556;6.832;2024-03-08T05:28:34;4.00;1.00
47114;DHT22;32867;51.556;6.832;2024-03-08T05:33:35;4.00;1.00
47114;DHT22;32867;51.556;6.832;2024-03-08T05:38:35;4.00;1.00
47114;DHT22;32867;51.556;6.832;2024-03-08T05:43:36;3.70;1.00
47114;DHT22;32867;51.556;6.832;2024-03-08T05:48:37;3.70;1.00
47114;DHT22;32867;51.556;6.832;2024-03-08T05:53:38;3.80;1.00
47114;DHT22;32867;51.556;6.832;2024-03-08T05:58:39;3.70;1.00
47114;DHT22;32867;51.556;6.832;2024-03-08T06:03:39;3.70;1.00
47114;DHT22;32867;51.556;6.832;2024-03-08T06:08:45;3.60;1.00
47114;DHT22;32867;51.556;6.832;2024-03-08T06:13:48;3.40;1.00
47114;DHT22;32867;51.556;6.832;2024-03-08T06:18:50;3.40;1.00
47114;DHT22;32867;51.556;6.832;2024-03-08T06:23:50;3.40;1.00
47114;DHT22;32867;51.556;6.832;2024-03-08T06:28:51;3.50;1.00
47114;DHT22;32867;51.556;6.832;2024-03-08T06:33:52;3.40;1.00
47114;DHT22;32867;51.556;6.832;2024-03-08T06:38:54;3.40;1.00
47114;DHT22;32867;51.556;6.832;2024-03-08T06:43:56;3.40;1.00
47114;DHT22;32867;51.556;6.832;2024-03-08T06:48:58;3.40;1.00
47114;DHT22;32867;51.556;6.832;2024-03-08T06:53:58;3.50;1.00
47114;DHT22;32867;51.556;6.832;2024-03-08T06:58:59;3.70;1.00
47114;DHT22;32867;51.556;6.832;2024-03-08T07:04:00;3.70;1.00
47114;DHT22;32867;51.556;6.832;2024-03-08T07:09:02;3.90;1.00
47114;DHT22;32867;51.556;6.832;2024-03-08T07:14:03;3.90;1.00
47114;DHT22;32867;51.556;6.832;2024-03-08T07:19:06;3.80;1.00
47114;DHT22;32867;51.556;6.832;2024-03-08T07:24:06;3.90;1.00
47114;DHT22;32867;51.556;6.832;2024-03-08T07:29:24;4.10;1.00
47114;DHT22;32867;51.556;6.832;2024-03-08T07:34:25;4.00;1.00
47114;DHT22;32867;51.556;6.832;2024-03-08T07:39:26;4.10;1.00
47114;DHT22;32867;51.556;6.832;2024-03-08T07:44:27;4.20;1.00
47114;DHT22;32867;51.556;6.832;2024-03-08T07:49:27;4.30;1.00
47114;DHT22;32867;51.556;6.832;2024-03-08T07:54:28;4.60;1.00
47114;DHT22;32867;51.556;6.832;2024-03-08T07:59:29;4.80;1.00
47114;DHT22;32867;51.556;6.832;2024-03-08T08:04:31;5.10;1.00
47114;DHT22;32867;51.556;6.832;2024-03-08T08:09:31;5.10;1.00
47114;DHT22;32867;51.556;6.832;2024-03-08T08:14:34;5.50;1.00
47114;DHT22;32867;51.556;6.832;2024-03-08T08:19:35;5.60;1.00
47114;DHT22;32867;51.556;6.832;2024-03-08T08:24:36;5.80;1.00
47114;DHT22;32867;51.556;6.832;2024-03-08T08:29:37;6.20;1.00
47114;DHT22;32867;51.556;6.832;2024-03-08T08:34:37;6.30;1.00
47114;DHT22;32867;51.556;6.832;2024-03-08T08:39:38;6.60;1.00
47114;DHT22;32867;51.556;6.832;2024-03-08T08:44:39;6.70;1.00
47114;DHT22;32867;51.556;6.832;2024-03-08T08:49:40;6.90;1.00
47114;DHT22;32867;51.556;6.832;2024-03-08T08:54:40;7.20;1.00
47114;DHT22;32867;51.556;6.832;2024-03-08T08:59:41;7.30;1.00
47114;DHT22;32867;51.556;6.832;2024-03-08T09:04:42;7.60;1.00
47114;DHT22;32867;51.556;6.832;2024-03-08T09:09:44;7.70;1.00
47114;DHT22;32867;51.556;6.832;2024-03-08T09:14:44;7.90;1.00
47114;DHT22;32867;51.556;6.832;2024-03-08T09:19:45;8.30;1.00
47114;DHT22;32867;51.556;6.832;2024-03-08T09:24:46;8.40;1.00
47114;DHT22;32867;51.556;6.832;2024-03-08T09:29:47;8.80;1.00
47114;DHT22;32867;51.556;6.832;2024-03-08T09:34:47;9.00;1.00
47114;DHT22;32867;51.556;6.832;2024-03-08T09:39:48;9.20;1.00
47114;DHT22;32867;51.556;6.832;2024-03-08T09:44:49;9.50;1.00
47114;DHT22;32867;51.556;6.832;2024-03-08T09:49:50;9.60;1.00
47114;DHT22;32867;51.556;6.832;2024-03-08T09:54:50;9.50;1.00
47114;DHT22;32867;51.556;6.832;2024-03-08T09:59:51;9.70;1.00
47114;DHT22;32867;51.556;6.832;2024-03-08T10:04:52;9.60;1.00
47114;DHT22;32867;51.556;6.832;2024-03-08T10:09:53;9.90;1.00
47114;DHT22;32867;51.556;6.832;2024-03-08T10:14:55;10.30;1.00
47114;DHT22;32867;51.556;6.832;2024-03-08T10:19:56;10.70;1.00
47114;DHT22;32867;51.556;6.832;2024-03-08T10:25:00;10.70;1.00
47114;DHT22;32867;51.556;6.832;2024-03-08T10:30:01;10.80;1.00
47114;DHT22;32867;51.556;6.832;2024-03-08T10:35:01;11.00;1.00
47114;DHT22;32867;51.556;6.832;2024-03-08T10:40:04;11.10;1.00
47114;DHT22;32867;51.556;6.832;2024-03-08T10:45:15;11.20;1.00
47114;DHT22;32867;51.556;6.832;2024-03-08T10:50:22;11.40;1.00
47114;DHT22;32867;51.556;6.832;2024-03-08T10:55:24;11.60;1.00
47114;DHT22;32867;51.556;6.832;2024-03-08T11:00:27;11.80;1.00
47114;DHT22;32867;51.556;6.832;2024-03-08T11:10:51;12.10;1.00
47114;DHT22;32867;51.556;6.832;2024-03-08T11:15:54;12.20;1.00
47114;DHT22;32867;51.556;6.832;2024-03-08T11:20:54;12.30;1.00
47114;DHT22;32867;51.556;6.832;2024-03-08T11:25:55;12.50;1.00
47114;DHT22;32867;51.556;6.832;2024-03-08T11:36:12;12.80;1.00
47114;DHT22;32867;51.556;6.832;2024-03-08T11:41:21;12.70;1.00
47114;DHT22;32867;51.556;6.832;2024-03-08T11:46:24;12.90;1.00
47114;DHT22;32867;51.556;6.832;2024-03-08T11:51:25;13.50;1.00
47114;DHT22;32867;51.556;6.832;2024-03-08T11:56:25;13.80;1.00
47114;DHT22;32867;51.556;6.832;2024-03-08T12:01:27;13.70;1.00
47114;DHT22;32867;51.556;6.832;2024-03-08T12:06:37;13.80;1.00
47114;DHT22;32867;51.556;6.832;2024-03-08T12:11:41;14.00;1.00
47114;DHT22;32867;51.556;6.832;2024-03-08T12:16:43;14.20;1.00
47114;DHT22;32867;51.556;6.832;2024-03-08T12:21:44;14.20;1.00
47114;DHT22;32867;51.556;6.832;2024-03-08T12:26:49;14.10;1.00
47114;DHT22;32867;51.556;6.832;2024-03-08T12:31:51;14.50;1.00
47114;DHT22;32867;51.556;6.832;2024-03-08T12:36:56;14.60;1.00
47114;DHT22;32867;51.556;6.832;2024-03-08T12:41:56;14.90;1.00
47114;DHT22;32867;51.556;6.832;2024-03-08T12:47:00;14.70;1.00
47114;DHT22;32867;51.556;6.832;2024-03-08T12:52:01;14.50;1.00
47114;DHT22;32867;51.556;6.832;2024-03-08T12:57:02;14.70;1.00
47114;DHT22;32867;51.556;6.832;2024-03-08T13:02:06;15.10;1.00
47114;DHT22;32867;51.556;6.832;2024-03-08T13:07:11;15.50;1.00
47114;DHT22;32867;51.556;6.832;2024-03-08T13:12:12;15.20;1.00
47114;DHT22;32867;51.556;6.832;2024-03-08T13:17:14;15.10;1.00
47114;DHT22;32867;51.556;6.832;2024-03-08T13:22:14;15.50;1.00
47114;DHT22;32867;51.556;6.832;2024-03-08T13:27:16;15.70;1.00
47114;DHT22;32867;51.556;6.832;2024-03-08T13:32:19;16.20;1.00
47114;DHT22;32867;51.556;6.832;2024-03-08T13:37:24;16.50;1.00
47114;DHT22;32867;51.556;6.832;2024-03-08T13:42:25;17.30;1.00
47114;DHT22;32867;51.556;6.832;2024-03-08T13:47:27;17.30;1.00
47114;DHT22;32867;51.556;6.832;2024-03-08T13:52:27;17.60;1.00
47114;DHT22;32867;51.556;6.832;2024-03-08T13:57:31;17.60;1.00
47114;DHT22;32867;51.556;6.832;2024-03-08T14:02:32;17.20;1.00
47114;DHT22;32867;51.556;6.832;2024-03-08T14:07:34;17.10;1.00
47114;DHT22;32867;51.556;6.832;2024-03-08T14:12:35;17.00;1.00
47114;DHT22;32867;51.556;6.832;2024-03-08T14:17:36;17.30;1.00
47114;DHT22;32867;51.556;6.832;2024-03-08T14:22:37;17.10;1.00
47114;DHT22;32867;51.556;6.832;2024-03-08T14:27:38;17.30;1.00
47114;DHT22;32867;51.556;6.832;2024-03-08T14:32:40;17.50;1.00
47114;DHT22;32867;51.556;6.832;2024-03-08T14:37:41;17.40;1.00
47114;DHT22;32867;51.556;6.832;2024-03-08T14:42:43;17.20;1.00
47114;DHT22;32867;51.556;6.832;2024-03-08T14:47:49;17.20;1.00
47114;DHT22;32867;51.556;6.832;2024-03-08T14:52:53;17.40;1.00
47114;DHT22;32867;51.556;6.832;2024-03-08T14:57:54;17.30;1.00
47114;DHT22;32867;51.556;6.832;2024-03-08T15:02:54;17.20;1.00
47114;DHT22;32867;51.556;6.832;2024-03-08T15:07:55;17.10;1.00
47114;DHT22;32867;51.556;6.832;2024-03-08T15:12:56;17.30;1.00
47114;DHT22;32867;51.556;6.832;2024-03-08T15:17:59;17.00;1.00
47114;DHT22;32867;51.556;6.832;2024-03-08T15:23:00;17.30;1.00
47114;DHT22;32867;51.556;6.832;2024-03-08T15:28:00;17.20;1.00
47114;DHT22;32867;51.556;6.832;2024-03-08T15:33:04;17.80;1.00
47114;DHT22;32867;51.556;6.832;2024-03-08T15:38:05;17.20;1.00
47114;DHT22;32867;51.556;6.832;2024-03-08T15:43:06;17.30;1.00
47114;DHT22;32867;51.556;6.832;2024-03-08T15:48:08;17.20;1.00
47114;DHT22;32867;51.556;6.832;2024-03-08T15:53:10;16.90;1.00
47114;DHT22;32867;51.556;6.832;2024-03-08T15:58:13;16.60;1.00
47114;DHT22;32867;51.556;6.832;2024-03-08T16:03:14;16.70;1.00
47114;DHT22;32867;51.556;6.832;2024-03-08T16:08:17;16.70;1.00
47114;DHT22;32867;51.556;6.832;2024-03-08T16:13:18;16.60;1.00
47114;DHT22;32867;51.556;6.832;2024-03-08T16:18:21;16.40;1.00
47114;DHT22;32867;51.556;6.832;2024-03-08T16:23:23;16.10;1.00
47114;DHT22;32867;51.556;6.832;2024-03-08T16:28:24;16.40;1.00
47114;DHT22;32867;51.556;6.832;2024-03-08T16:33:28;16.60;1.00
47114;DHT22;32867;51.556;6.832;2024-03-08T16:38:29;17.00;1.00
47114;DHT22;32867;51.556;6.832;2024-03-08T16:43:29;16.30;1.00
47114;DHT22;32867;51.556;6.832;2024-03-08T16:48:30;15.40;1.00
47114;DHT22;32867;51.556;6.832;2024-03-08T16:53:31;15.30;1.00
47114;DHT22;32867;51.556;6.832;2024-03-08T16:58:35;15.10;1.00
47114;DHT22;32867;51.556;6.832;2024-03-08T17:03:36;14.60;1.00
47114;DHT22;32867;51.556;6.832;2024-03-08T17:08:37;14.70;1.00
47114;DHT22;32867;51.556;6.832;2024-03-08T17:13:37;14.80;1.00
47114;DHT22;32867;51.556;6.832;2024-03-08T17:18:38;14.60;1.00
47114;DHT22;32867;51.556;6.832;2024-03-08T17:23:39;14.30;1.00
47114;DHT22;32867;51.556;6.832;2024-03-08T17:28:40;13.70;1.00
47114;DHT22;32867;51.556;6.832;2024-03-08T17:33:43;13.60;1.00
47114;DHT22;32867;51.556;6.832;2024-03-08T17:38:45;13.40;1.00
47114;DHT22;32867;51.556;6.832;2024-03-08T17:43:50;13.20;1.00
47114;DHT22;32867;51.556;6.832;2024-03-08T17:48:51;12.90;1.00
47114;DHT22;32867;51.556;6.832;2024-03-08T17:53:54;12.50;1.00
47114;DHT22;32867;51.556;6.832;2024-03-08T17:58:54;12.50;1.00
47114;DHT22;32867;51.556;6.832;2024-03-08T18:03:56;12.30;1.00
47114;DHT22;32867;51.556;6.832;2024-03-08T18:08:56;12.00;1.00
47114;DHT22;32867;51.556;6.832;2024-03-08T18:13:57;11.60;1.00
47114;DHT22;32867;51.556;6.832;2024-03-08T18:18:58;11.50;1.00
47114;DHT22;32867;51.556;6.832;2024-03-08T18:23:59;11.40;1.00
47114;DHT22;32867;51.556;6.832;2024-03-08T18:29:02;11.10;1.00
47114;DHT22;32867;51.556;6.832;2024-03-08T18:34:04;11.10;1.00
47114;DHT22;32867;51.556;6.832;2024-03-08T18:39:06;11.00;1.00
47114;DHT22;32867;51.556;6.832;2024-03-08T18:44:10;10.90;1.00
47114;DHT22;32867;51.556;6.832;2024-03-08T18:49:11;10.60;1.00
47114;DHT22;32867;51.556;6.832;2024-03-08T18:54:12;10.70;1.00
47114;DHT22;32867;51.556;6.832;2024-03-08T18:59:13;10.40;1.00
47114;DHT22;32867;51.556;6.832;2024-03-08T19:04:14;10.30;1.00
47114;DHT22;32867;51.556;6.832;2024-03-08T19:09:15;10.10;1.00
47114;DHT22;32867;51.556;6.832;2024-03-08T19:14:15;10.30;1.00
47114;DHT22;32867;51.556;6.832;2024-03-08T19:19:18;10.00;1.00
47114;DHT22;32867;51.556;6.832;2024-03-08T19:24:22;9.90;1.00
47114;DHT22;32867;51.556;6.832;2024-03-08T19:29:23;9.50;1.00
47114;DHT22;32867;51.556;6.832;2024-03-08T19:34:25;9.40;1.00
47114;DHT22;32867;51.556;6.832;2024-03-08T19:39:26;9.40;1.00
47114;DHT22;32867;51.556;6.832;2024-03-08T19:44:28;9.30;1.00
47114;DHT22;32867;51.556;6.832;2024-03-08T19:49:28;9.30;1.00
47114;DHT22;32867;51.556;6.832;2024-03-08T19:54:31;9.20;1.00
47114;DHT22;32867;51.556;6.832;2024-03-08T19:59:34;9.10;1.00
47114;DHT22;32867;51.556;6.832;2024-03-08T20:04:42;9.00;1.00
47114;DHT22;32867;51.556;6.832;2024-03-08T20:09:42;9.00;1.00
47114;DHT22;32867;51.556;6.832;2024-03-08T20:14:43;9.00;1.00
47114;DHT22;32867;51.556;6.832;2024-03-08T20:19:43;8.90;1.00
47114;DHT22;32867;51.556;6.832;2024-03-08T20:24:44;8.90;1.00
47114;DHT22;32867;51.556;6.832;2024-03-08T20:29:45;8.80;1.00
47114;DHT22;32867;51.556;6.832;2024-03-08T20:34:46;8.60;1.00
47114;DHT22;32867;51.556;6.832;2024-03-08T20:39:47;8.60;1.00
47114;DHT22;32867;51.556;6.832;2024-03-08T20:44:49;8.60;1.00
47114;DHT22;32867;51.556;6.832;2024-03-08T20:49:50;8.60;1.00
47114;DHT22;32867;51.556;6.832;2024-03-08T20:54:51;8.50;1.00
47114;DHT22;32867;51.556;6.832;2024-03-08T20:59:52;8.30;1.00
47114;DHT22;32867;51.556;6.832;2024-03-08T21:04:54;8.20;1.00
47114;DHT22;32867;51.556;6.832;2024-03-08T21:09:54;8.30;1.00
47114;DHT22;32867;51.556;6.832;2024-03-08T21:14:55;8.20;1.00
47114;DHT22;32867;51.556;6.832;2024-03-08T21:19:56;8.30;1.00
47114;DHT22;32867;51.556;6.832;2024-03-08T21:24:56;8.30;1.00
47114;DHT22;32867;51.556;6.832;2024-03-08T21:29:57;8.30;1.00
47114;DHT22;32867;51.556;6.832;2024-03-08T21:34:58;8.20;1.00
47114;DHT22;32867;51.556;6.832;2024-03-08T21:39:59;8.10;1.00
47114;DHT22;32867;51.556;6.832;2024-03-08T21:45:02;8.10;1.00
47114;DHT22;32867;51.556;6.832;2024-03-08T21:50:05;8.10;1.00
47114;DHT22;32867;51.556;6.832;2024-03-08T21:55:06;8.00;1.00
47114;DHT22;32867;51.556;6.832;2024-03-08T22:00:07;7.90;1.00
47114;DHT22;32867;51.556;6.832;2024-03-08T22:05:18;7.80;1.00
47114;DHT22;32867;51.556;6.832;2024-03-08T22:10:20;7.60;1.00
47114;DHT22;32867;51.556;6.832;2024-03-08T22:15:25;7.60;1.00
47114;DHT22;32867;51.556;6.832;2024-03-08T22:20:26;7.70;1.00
47114;DHT22;32867;51.556;6.832;2024-03-08T22:25:31;7.80;1.00
47114;DHT22;32867;51.556;6.832;2024-03-08T22:30:32;7.60;1.00
47114;DHT22;32867;51.556;6.832;2024-03-08T22:35:32;7.60;1.00
47114;DHT22;32867;51.556;6.832;2024-03-08T22:40:33;7.60;1.00
47114;DHT22;32867;51.556;6.832;2024-03-08T22:45:34;7.50;1.00
47114;DHT22;32867;51.556;6.832;2024-03-08T22:50:35;7.30;1.00
47114;DHT22;32867;51.556;6.832;2024-03-08T22:55:37;7.20;1.00
47114;DHT22;32867;51.556;6.832;2024-03-08T23:00:37;7.30;1.00
47114;DHT22;32867;51.556;6.832;2024-03-08T23:05:38;7.40;1.00
47114;DHT22;32867;51.556;6.832;2024-03-08T23:10:41;7.40;1.00
47114;DHT22;32867;51.556;6.832;2024-03-08T23:15:42;7.40;1.00
47114;DHT22;32867;51.556;6.832;2024-03-08T23:20:43;7.30;1.00
47114;DHT22;32867;51.556;6.832;2024-03-08T23:25:44;7.20;1.00
47114;DHT22;32867;51.556;6.832;2024-03-08T23:30:45;7.10;1.00
47114;DHT22;32867;51.556;6.832;2024-03-08T23:35:46;7.20;1.00
47114;DHT22;32867;51.556;6.832;2024-03-08T23:40:46;7.20;1.00
47114;DHT22;32867;51.556;6.832;2024-03-08T23:45:47;7.20;1.00
47114;DHT22;32867;51.556;6.832;2024-03-08T23:50:49;7.20;1.00
47114;DHT22;32867;51.556;6.832;2024-03-08T23:55:49;7.10;1.00
